sensor_id;sensor_type;location;lat;lon;timestamp;pressure;altitude;pressure_sealevel;temperature
68027;BMP180;54819;48.030;14.710;2023-04-25T00:02:11;96945.40;;;9.80
68027;BMP180;54819;48.030;14.710;2023-04-25T00:04:38;96950.60;;;9.80
68027;BMP180;54819;48.030;14.710;2023-04-25T00:07:06;96944.60;;;9.80
68027;BMP180;54819;48.030;14.710;2023-04-25T00:09:33;96938.80;;;9.80
68027;BMP180;54819;48.030;14.710;2023-04-25T00:11:59;96939.40;;;9.80
68027;BMP180;54819;48.030;14.710;2023-04-25T00:14:29;96940.40;;;9.80
68027;BMP180;54819;48.030;14.710;2023-04-25T00:16:56;96941.20;;;9.78
68027;BMP180;54819;48.030;14.710;2023-04-25T00:19:22;96935.80;;;9.80
68027;BMP180;54819;48.030;14.710;2023-04-25T00:21:49;96937.40;;;9.78
68027;BMP180;54819;48.030;14.710;2023-04-25T00:24:16;96934.60;;;9.76
68027;BMP180;54819;48.030;14.710;2023-04-25T00:26:43;96933.00;;;9.72
68027;BMP180;54819;48.030;14.710;2023-04-25T00:29:09;96933.00;;;9.78
68027;BMP180;54819;48.030;14.710;2023-04-25T00:31:37;96930.80;;;9.80
68027;BMP180;54819;48.030;14.710;2023-04-25T00:34:06;96930.20;;;9.80
68027;BMP180;54819;48.030;14.710;2023-04-25T00:36:34;96928.20;;;9.80
68027;BMP180;54819;48.030;14.710;2023-04-25T00:39:01;96922.80;;;9.80
68027;BMP180;54819;48.030;14.710;2023-04-25T00:41:29;96920.60;;;9.70
68027;BMP180;54819;48.030;14.710;2023-04-25T00:43:57;96921.80;;;9.70
68027;BMP180;54819;48.030;14.710;2023-04-25T00:46:25;96925.40;;;9.70
68027;BMP180;54819;48.030;14.710;2023-04-25T00:48:52;96922.40;;;9.70
68027;BMP180;54819;48.030;14.710;2023-04-25T00:51:21;96916.40;;;9.70
68027;BMP180;54819;48.030;14.710;2023-04-25T00:53:50;96910.80;;;9.70
68027;BMP180;54819;48.030;14.710;2023-04-25T00:56:18;96915.60;;;9.70
68027;BMP180;54819;48.030;14.710;2023-04-25T00:58:45;96907.60;;;9.70
68027;BMP180;54819;48.030;14.710;2023-04-25T01:01:12;96902.60;;;9.70
68027;BMP180;54819;48.030;14.710;2023-04-25T01:03:40;96900.00;;;9.70
68027;BMP180;54819;48.030;14.710;2023-04-25T01:06:09;96898.40;;;9.70
68027;BMP180;54819;48.030;14.710;2023-04-25T01:08:39;96899.40;;;9.70
68027;BMP180;54819;48.030;14.710;2023-04-25T01:11:07;96896.20;;;9.70
68027;BMP180;54819;48.030;14.710;2023-04-25T01:13:35;96896.60;;;9.70
68027;BMP180;54819;48.030;14.710;2023-04-25T01:16:03;96894.20;;;9.68
68027;BMP180;54819;48.030;14.710;2023-04-25T01:18:31;96897.20;;;9.60
68027;BMP180;54819;48.030;14.710;2023-04-25T01:21:10;96896.00;;;9.60
68027;BMP180;54819;48.030;14.710;2023-04-25T01:23:40;96890.20;;;9.50
68027;BMP180;54819;48.030;14.710;2023-04-25T01:26:10;96888.40;;;9.50
68027;BMP180;54819;48.030;14.710;2023-04-25T01:28:39;96883.60;;;9.48
68027;BMP180;54819;48.030;14.710;2023-04-25T01:31:11;96880.20;;;9.40
68027;BMP180;54819;48.030;14.710;2023-04-25T01:33:38;96878.40;;;9.40
68027;BMP180;54819;48.030;14.710;2023-04-25T01:36:06;96878.20;;;9.30
68027;BMP180;54819;48.030;14.710;2023-04-25T01:38:34;96877.20;;;9.30
68027;BMP180;54819;48.030;14.710;2023-04-25T01:41:02;96879.80;;;9.20
68027;BMP180;54819;48.030;14.710;2023-04-25T01:43:29;96883.60;;;9.16
68027;BMP180;54819;48.030;14.710;2023-04-25T01:45:56;96886.40;;;9.10
68027;BMP180;54819;48.030;14.710;2023-04-25T01:48:23;96885.80;;;9.00
68027;BMP180;54819;48.030;14.710;2023-04-25T01:50:50;96884.20;;;9.00
68027;BMP180;54819;48.030;14.710;2023-04-25T01:53:17;96885.20;;;8.96
68027;BMP180;54819;48.030;14.710;2023-04-25T01:55:45;96883.00;;;8.90
68027;BMP180;54819;48.030;14.710;2023-04-25T01:58:14;96881.20;;;8.90
68027;BMP180;54819;48.030;14.710;2023-04-25T02:01:05;96876.20;;;8.80
68027;BMP180;54819;48.030;14.710;2023-04-25T02:03:36;96879.80;;;8.80
68027;BMP180;54819;48.030;14.710;2023-04-25T02:06:07;96876.20;;;8.70
68027;BMP180;54819;48.030;14.710;2023-04-25T02:08:40;96874.40;;;8.70
68027;BMP180;54819;48.030;14.710;2023-04-25T02:11:07;96876.20;;;8.68
68027;BMP180;54819;48.030;14.710;2023-04-25T02:13:40;96877.20;;;8.60
68027;BMP180;54819;48.030;14.710;2023-04-25T02:16:25;96873.20;;;8.60
68027;BMP180;54819;48.030;14.710;2023-04-25T02:18:52;96878.40;;;8.60
68027;BMP180;54819;48.030;14.710;2023-04-25T02:21:19;96883.00;;;8.60
68027;BMP180;54819;48.030;14.710;2023-04-25T02:23:46;96878.20;;;8.60
68027;BMP180;54819;48.030;14.710;2023-04-25T02:26:15;96880.20;;;8.60
68027;BMP180;54819;48.030;14.710;2023-04-25T02:28:42;96874.80;;;8.60
68027;BMP180;54819;48.030;14.710;2023-04-25T02:31:08;96877.20;;;8.60
68027;BMP180;54819;48.030;14.710;2023-04-25T02:33:35;96873.20;;;8.60
68027;BMP180;54819;48.030;14.710;2023-04-25T02:36:04;96876.60;;;8.60
68027;BMP180;54819;48.030;14.710;2023-04-25T02:38:31;96872.40;;;8.62
68027;BMP180;54819;48.030;14.710;2023-04-25T02:40:58;96859.80;;;8.64
68027;BMP180;54819;48.030;14.710;2023-04-25T02:43:25;96864.00;;;8.66
68027;BMP180;54819;48.030;14.710;2023-04-25T02:45:52;96856.80;;;8.62
68027;BMP180;54819;48.030;14.710;2023-04-25T02:48:19;96849.60;;;8.60
68027;BMP180;54819;48.030;14.710;2023-04-25T02:50:45;96850.40;;;8.60
68027;BMP180;54819;48.030;14.710;2023-04-25T02:53:12;96849.80;;;8.50
68027;BMP180;54819;48.030;14.710;2023-04-25T02:55:44;96843.20;;;8.50
68027;BMP180;54819;48.030;14.710;2023-04-25T02:58:10;96844.20;;;8.50
68027;BMP180;54819;48.030;14.710;2023-04-25T03:00:46;96846.20;;;8.40
68027;BMP180;54819;48.030;14.710;2023-04-25T03:03:12;96847.80;;;8.40
68027;BMP180;54819;48.030;14.710;2023-04-25T03:05:40;96847.20;;;8.30
68027;BMP180;54819;48.030;14.710;2023-04-25T03:08:06;96849.80;;;8.30
68027;BMP180;54819;48.030;14.710;2023-04-25T03:10:33;96849.40;;;8.20
68027;BMP180;54819;48.030;14.710;2023-04-25T03:13:03;96852.80;;;8.20
68027;BMP180;54819;48.030;14.710;2023-04-25T03:15:29;96848.20;;;8.10
68027;BMP180;54819;48.030;14.710;2023-04-25T03:17:57;96846.20;;;8.00
68027;BMP180;54819;48.030;14.710;2023-04-25T03:20:24;96838.20;;;7.98
68027;BMP180;54819;48.030;14.710;2023-04-25T03:22:51;96839.60;;;7.90
68027;BMP180;54819;48.030;14.710;2023-04-25T03:25:18;96835.80;;;7.80
68027;BMP180;54819;48.030;14.710;2023-04-25T03:27:45;96835.40;;;7.78
68027;BMP180;54819;48.030;14.710;2023-04-25T03:30:12;96837.40;;;7.70
68027;BMP180;54819;48.030;14.710;2023-04-25T03:32:39;96835.60;;;7.64
68027;BMP180;54819;48.030;14.710;2023-04-25T03:35:07;96839.20;;;7.60
68027;BMP180;54819;48.030;14.710;2023-04-25T03:37:34;96839.40;;;7.60
68027;BMP180;54819;48.030;14.710;2023-04-25T03:40:01;96844.80;;;7.60
68027;BMP180;54819;48.030;14.710;2023-04-25T03:42:46;96846.00;;;7.50
68027;BMP180;54819;48.030;14.710;2023-04-25T03:45:13;96844.60;;;7.50
68027;BMP180;54819;48.030;14.710;2023-04-25T03:47:40;96846.40;;;7.50
68027;BMP180;54819;48.030;14.710;2023-04-25T03:50:07;96847.80;;;7.48
68027;BMP180;54819;48.030;14.710;2023-04-25T03:52:34;96846.00;;;7.40
68027;BMP180;54819;48.030;14.710;2023-04-25T03:55:00;96851.80;;;7.40
68027;BMP180;54819;48.030;14.710;2023-04-25T03:57:27;96848.80;;;7.40
68027;BMP180;54819;48.030;14.710;2023-04-25T03:59:54;96842.20;;;7.40
68027;BMP180;54819;48.030;14.710;2023-04-25T04:02:21;96839.40;;;7.40
68027;BMP180;54819;48.030;14.710;2023-04-25T04:04:50;96839.00;;;7.40
68027;BMP180;54819;48.030;14.710;2023-04-25T04:07:18;96841.60;;;7.34
68027;BMP180;54819;48.030;14.710;2023-04-25T04:09:47;96843.20;;;7.30
68027;BMP180;54819;48.030;14.710;2023-04-25T04:12:19;96843.20;;;7.30
68027;BMP180;54819;48.030;14.710;2023-04-25T04:14:46;96840.60;;;7.30
68027;BMP180;54819;48.030;14.710;2023-04-25T04:17:13;96845.00;;;7.30
68027;BMP180;54819;48.030;14.710;2023-04-25T04:19:40;96839.20;;;7.30
68027;BMP180;54819;48.030;14.710;2023-04-25T04:22:18;96820.80;;;7.62
68027;BMP180;54819;48.030;14.710;2023-04-25T04:24:46;96822.20;;;8.32
68027;BMP180;54819;48.030;14.710;2023-04-25T04:27:19;96823.00;;;9.02
68027;BMP180;54819;48.030;14.710;2023-04-25T04:29:58;96821.80;;;9.64
68027;BMP180;54819;48.030;14.710;2023-04-25T04:32:30;96812.00;;;10.46
68027;BMP180;54819;48.030;14.710;2023-04-25T04:35:03;96807.60;;;11.16
68027;BMP180;54819;48.030;14.710;2023-04-25T04:37:30;96806.00;;;11.82
68027;BMP180;54819;48.030;14.710;2023-04-25T04:39:58;96809.20;;;12.56
68027;BMP180;54819;48.030;14.710;2023-04-25T04:42:40;96809.80;;;13.24
68027;BMP180;54819;48.030;14.710;2023-04-25T04:45:21;96806.20;;;13.96
68027;BMP180;54819;48.030;14.710;2023-04-25T04:48:07;96803.20;;;14.64
68027;BMP180;54819;48.030;14.710;2023-04-25T04:50:43;96807.20;;;15.24
68027;BMP180;54819;48.030;14.710;2023-04-25T04:53:14;96802.00;;;15.72
68027;BMP180;54819;48.030;14.710;2023-04-25T04:56:10;96817.80;;;15.86
68027;BMP180;54819;48.030;14.710;2023-04-25T04:58:52;96827.40;;;14.96
68027;BMP180;54819;48.030;14.710;2023-04-25T05:01:48;96833.60;;;14.14
68027;BMP180;54819;48.030;14.710;2023-04-25T05:04:41;96830.20;;;13.70
68027;BMP180;54819;48.030;14.710;2023-04-25T05:07:24;96824.00;;;13.32
68027;BMP180;54819;48.030;14.710;2023-04-25T05:10:06;96826.20;;;13.00
68027;BMP180;54819;48.030;14.710;2023-04-25T05:12:33;96835.60;;;12.70
68027;BMP180;54819;48.030;14.710;2023-04-25T05:15:21;96839.00;;;12.50
68027;BMP180;54819;48.030;14.710;2023-04-25T05:17:59;96835.20;;;12.50
68027;BMP180;54819;48.030;14.710;2023-04-25T05:20:44;96838.20;;;12.50
68027;BMP180;54819;48.030;14.710;2023-04-25T05:23:34;96836.80;;;12.50
68027;BMP180;54819;48.030;14.710;2023-04-25T05:26:08;96829.60;;;12.60
68027;BMP180;54819;48.030;14.710;2023-04-25T05:29:06;96827.80;;;12.70
68027;BMP180;54819;48.030;14.710;2023-04-25T05:31:44;96820.40;;;12.60
68027;BMP180;54819;48.030;14.710;2023-04-25T05:34:14;96817.40;;;12.40
68027;BMP180;54819;48.030;14.710;2023-04-25T05:36:56;96823.20;;;12.20
68027;BMP180;54819;48.030;14.710;2023-04-25T05:39:23;96822.60;;;12.00
68027;BMP180;54819;48.030;14.710;2023-04-25T05:41:53;96824.60;;;11.90
68027;BMP180;54819;48.030;14.710;2023-04-25T05:44:38;96826.40;;;11.80
68027;BMP180;54819;48.030;14.710;2023-04-25T05:47:21;96826.80;;;11.80
68027;BMP180;54819;48.030;14.710;2023-04-25T05:50:13;96826.00;;;11.70
68027;BMP180;54819;48.030;14.710;2023-04-25T05:52:48;96826.40;;;11.70
68027;BMP180;54819;48.030;14.710;2023-04-25T05:55:35;96825.00;;;11.70
68027;BMP180;54819;48.030;14.710;2023-04-25T05:58:15;96828.40;;;11.78
68027;BMP180;54819;48.030;14.710;2023-04-25T06:00:42;96827.60;;;11.90
68027;BMP180;54819;48.030;14.710;2023-04-25T06:03:09;96831.20;;;12.10
68027;BMP180;54819;48.030;14.710;2023-04-25T06:05:36;96830.00;;;12.30
68027;BMP180;54819;48.030;14.710;2023-04-25T06:08:03;96829.00;;;12.50
68027;BMP180;54819;48.030;14.710;2023-04-25T06:10:30;96826.80;;;12.70
68027;BMP180;54819;48.030;14.710;2023-04-25T06:12:57;96818.60;;;12.88
68027;BMP180;54819;48.030;14.710;2023-04-25T06:15:24;96817.60;;;13.00
68027;BMP180;54819;48.030;14.710;2023-04-25T06:17:55;96818.60;;;13.00
68027;BMP180;54819;48.030;14.710;2023-04-25T06:20:22;96821.80;;;13.10
68027;BMP180;54819;48.030;14.710;2023-04-25T06:22:52;96818.60;;;13.14
68027;BMP180;54819;48.030;14.710;2023-04-25T06:25:20;96813.20;;;13.20
68027;BMP180;54819;48.030;14.710;2023-04-25T06:27:47;96814.00;;;13.10
68027;BMP180;54819;48.030;14.710;2023-04-25T06:30:15;96816.00;;;13.00
68027;BMP180;54819;48.030;14.710;2023-04-25T06:32:44;96813.40;;;12.90
68027;BMP180;54819;48.030;14.710;2023-04-25T06:35:11;96816.20;;;12.90
68027;BMP180;54819;48.030;14.710;2023-04-25T06:37:40;96813.80;;;12.90
68027;BMP180;54819;48.030;14.710;2023-04-25T06:40:08;96811.60;;;12.80
68027;BMP180;54819;48.030;14.710;2023-04-25T06:42:34;96813.60;;;12.76
68027;BMP180;54819;48.030;14.710;2023-04-25T06:45:21;96816.20;;;12.80
68027;BMP180;54819;48.030;14.710;2023-04-25T06:47:48;96813.60;;;12.80
68027;BMP180;54819;48.030;14.710;2023-04-25T06:50:15;96814.40;;;12.78
68027;BMP180;54819;48.030;14.710;2023-04-25T06:52:41;96809.00;;;12.74
68027;BMP180;54819;48.030;14.710;2023-04-25T06:55:09;96807.20;;;12.78
68027;BMP180;54819;48.030;14.710;2023-04-25T06:57:50;96798.40;;;12.80
68027;BMP180;54819;48.030;14.710;2023-04-25T07:00:36;96792.80;;;12.90
68027;BMP180;54819;48.030;14.710;2023-04-25T07:03:03;96790.60;;;12.80
68027;BMP180;54819;48.030;14.710;2023-04-25T07:05:30;96784.80;;;12.90
68027;BMP180;54819;48.030;14.710;2023-04-25T07:07:58;96787.60;;;12.90
68027;BMP180;54819;48.030;14.710;2023-04-25T07:10:25;96781.00;;;13.00
68027;BMP180;54819;48.030;14.710;2023-04-25T07:12:52;96782.20;;;13.10
68027;BMP180;54819;48.030;14.710;2023-04-25T07:15:19;96781.20;;;13.32
68027;BMP180;54819;48.030;14.710;2023-04-25T07:17:46;96785.40;;;13.72
68027;BMP180;54819;48.030;14.710;2023-04-25T07:20:13;96783.40;;;14.04
68027;BMP180;54819;48.030;14.710;2023-04-25T07:22:40;96784.00;;;14.14
68027;BMP180;54819;48.030;14.710;2023-04-25T07:25:08;96786.00;;;14.20
68027;BMP180;54819;48.030;14.710;2023-04-25T07:27:35;96779.40;;;14.20
68027;BMP180;54819;48.030;14.710;2023-04-25T07:30:11;96776.80;;;14.30
68027;BMP180;54819;48.030;14.710;2023-04-25T07:32:39;96780.20;;;14.40
68027;BMP180;54819;48.030;14.710;2023-04-25T07:35:06;96778.60;;;14.60
68027;BMP180;54819;48.030;14.710;2023-04-25T07:37:35;96779.20;;;14.50
68027;BMP180;54819;48.030;14.710;2023-04-25T07:40:08;96777.00;;;14.50
68027;BMP180;54819;48.030;14.710;2023-04-25T07:42:39;96775.80;;;14.42
68027;BMP180;54819;48.030;14.710;2023-04-25T07:45:07;96777.20;;;14.40
68027;BMP180;54819;48.030;14.710;2023-04-25T07:47:35;96773.60;;;14.40
68027;BMP180;54819;48.030;14.710;2023-04-25T07:50:03;96777.80;;;14.70
68027;BMP180;54819;48.030;14.710;2023-04-25T07:52:30;96776.00;;;14.70
68027;BMP180;54819;48.030;14.710;2023-04-25T07:55:07;96773.20;;;14.70
68027;BMP180;54819;48.030;14.710;2023-04-25T07:57:48;96782.00;;;14.54
68027;BMP180;54819;48.030;14.710;2023-04-25T08:00:15;96780.00;;;14.40
68027;BMP180;54819;48.030;14.710;2023-04-25T08:02:43;96788.80;;;14.30
68027;BMP180;54819;48.030;14.710;2023-04-25T08:05:13;96783.40;;;14.20
68027;BMP180;54819;48.030;14.710;2023-04-25T08:07:47;96779.20;;;14.30
68027;BMP180;54819;48.030;14.710;2023-04-25T08:10:14;96779.80;;;14.46
68027;BMP180;54819;48.030;14.710;2023-04-25T08:12:41;96783.00;;;14.60
68027;BMP180;54819;48.030;14.710;2023-04-25T08:15:09;96778.40;;;14.70
68027;BMP180;54819;48.030;14.710;2023-04-25T08:17:38;96774.40;;;14.84
68027;BMP180;54819;48.030;14.710;2023-04-25T08:20:06;96773.20;;;15.00
68027;BMP180;54819;48.030;14.710;2023-04-25T08:22:33;96774.20;;;15.12
68027;BMP180;54819;48.030;14.710;2023-04-25T08:25:36;96768.00;;;15.46
68027;BMP180;54819;48.030;14.710;2023-04-25T08:28:03;96773.60;;;15.30
68027;BMP180;54819;48.030;14.710;2023-04-25T08:30:30;96776.60;;;15.20
68027;BMP180;54819;48.030;14.710;2023-04-25T08:32:57;96768.80;;;15.10
68027;BMP180;54819;48.030;14.710;2023-04-25T08:35:48;96771.60;;;15.18
68027;BMP180;54819;48.030;14.710;2023-04-25T08:38:15;96773.00;;;15.10
68027;BMP180;54819;48.030;14.710;2023-04-25T08:40:43;96766.80;;;15.10
68027;BMP180;54819;48.030;14.710;2023-04-25T08:43:18;96776.80;;;15.14
68027;BMP180;54819;48.030;14.710;2023-04-25T08:45:46;96780.60;;;15.20
68027;BMP180;54819;48.030;14.710;2023-04-25T08:48:21;96777.40;;;15.20
68027;BMP180;54819;48.030;14.710;2023-04-25T08:50:53;96781.20;;;15.30
68027;BMP180;54819;48.030;14.710;2023-04-25T08:53:32;96781.60;;;15.20
68027;BMP180;54819;48.030;14.710;2023-04-25T08:56:03;96779.80;;;15.30
68027;BMP180;54819;48.030;14.710;2023-04-25T08:58:33;96773.60;;;15.40
68027;BMP180;54819;48.030;14.710;2023-04-25T09:01:01;96771.60;;;15.50
68027;BMP180;54819;48.030;14.710;2023-04-25T09:03:30;96771.60;;;15.50
68027;BMP180;54819;48.030;14.710;2023-04-25T09:05:57;96770.80;;;15.40
68027;BMP180;54819;48.030;14.710;2023-04-25T09:08:24;96770.40;;;15.30
68027;BMP180;54819;48.030;14.710;2023-04-25T09:10:51;96774.60;;;15.20
68027;BMP180;54819;48.030;14.710;2023-04-25T09:13:26;96776.60;;;15.10
68027;BMP180;54819;48.030;14.710;2023-04-25T09:16:12;96776.40;;;15.10
68027;BMP180;54819;48.030;14.710;2023-04-25T09:19:01;96779.60;;;15.10
68027;BMP180;54819;48.030;14.710;2023-04-25T09:21:27;96777.80;;;15.00
68027;BMP180;54819;48.030;14.710;2023-04-25T09:23:54;96783.20;;;15.00
68027;BMP180;54819;48.030;14.710;2023-04-25T09:26:21;96788.60;;;14.90
68027;BMP180;54819;48.030;14.710;2023-04-25T09:28:48;96795.00;;;14.80
68027;BMP180;54819;48.030;14.710;2023-04-25T09:31:23;96802.20;;;14.60
68027;BMP180;54819;48.030;14.710;2023-04-25T09:34:00;96802.40;;;14.40
68027;BMP180;54819;48.030;14.710;2023-04-25T09:36:30;96801.40;;;14.20
68027;BMP180;54819;48.030;14.710;2023-04-25T09:39:02;96797.20;;;14.10
68027;BMP180;54819;48.030;14.710;2023-04-25T09:41:37;96793.60;;;14.00
68027;BMP180;54819;48.030;14.710;2023-04-25T09:44:05;96801.40;;;14.06
68027;BMP180;54819;48.030;14.710;2023-04-25T09:46:35;96802.20;;;14.10
68027;BMP180;54819;48.030;14.710;2023-04-25T09:49:16;96805.40;;;14.20
68027;BMP180;54819;48.030;14.710;2023-04-25T09:52:03;96795.40;;;14.38
68027;BMP180;54819;48.030;14.710;2023-04-25T09:54:41;96790.40;;;14.62
68027;BMP180;54819;48.030;14.710;2023-04-25T09:57:20;96784.00;;;14.78
68027;BMP180;54819;48.030;14.710;2023-04-25T09:59:54;96782.00;;;14.96
68027;BMP180;54819;48.030;14.710;2023-04-25T10:02:26;96785.00;;;15.30
68027;BMP180;54819;48.030;14.710;2023-04-25T10:04:57;96779.40;;;15.68
68027;BMP180;54819;48.030;14.710;2023-04-25T10:07:36;96777.80;;;16.14
68027;BMP180;54819;48.030;14.710;2023-04-25T10:10:07;96773.00;;;16.48
68027;BMP180;54819;48.030;14.710;2023-04-25T10:12:33;96773.00;;;16.76
68027;BMP180;54819;48.030;14.710;2023-04-25T10:15:02;96767.20;;;17.10
68027;BMP180;54819;48.030;14.710;2023-04-25T10:17:31;96772.20;;;17.20
68027;BMP180;54819;48.030;14.710;2023-04-25T10:19:58;96773.20;;;17.24
68027;BMP180;54819;48.030;14.710;2023-04-25T10:22:36;96775.20;;;17.20
68027;BMP180;54819;48.030;14.710;2023-04-25T10:25:05;96767.00;;;17.20
68027;BMP180;54819;48.030;14.710;2023-04-25T10:27:35;96764.40;;;17.22
68027;BMP180;54819;48.030;14.710;2023-04-25T10:30:09;96765.80;;;17.30
68027;BMP180;54819;48.030;14.710;2023-04-25T10:32:38;96758.20;;;17.34
68027;BMP180;54819;48.030;14.710;2023-04-25T10:35:25;96746.40;;;17.58
68027;BMP180;54819;48.030;14.710;2023-04-25T10:38:05;96745.80;;;17.88
68027;BMP180;54819;48.030;14.710;2023-04-25T10:40:33;96746.00;;;18.04
68027;BMP180;54819;48.030;14.710;2023-04-25T10:45:54;96755.00;;;17.62
68027;BMP180;54819;48.030;14.710;2023-04-25T10:48:31;96759.20;;;17.30
68027;BMP180;54819;48.030;14.710;2023-04-25T10:51:08;96764.20;;;17.10
68027;BMP180;54819;48.030;14.710;2023-04-25T10:53:36;96762.20;;;17.00
68027;BMP180;54819;48.030;14.710;2023-04-25T10:59:18;96769.00;;;17.32
68027;BMP180;54819;48.030;14.710;2023-04-25T11:01:51;96765.40;;;17.40
68027;BMP180;54819;48.030;14.710;2023-04-25T11:04:32;96766.00;;;17.50
68027;BMP180;54819;48.030;14.710;2023-04-25T11:09:39;96772.80;;;17.16
68027;BMP180;54819;48.030;14.710;2023-04-25T11:12:10;96774.40;;;17.20
68027;BMP180;54819;48.030;14.710;2023-04-25T11:14:39;96769.00;;;17.38
68027;BMP180;54819;48.030;14.710;2023-04-25T11:17:10;96772.60;;;17.42
68027;BMP180;54819;48.030;14.710;2023-04-25T11:19:38;96775.20;;;17.50
68027;BMP180;54819;48.030;14.710;2023-04-25T11:22:04;96781.60;;;17.50
68027;BMP180;54819;48.030;14.710;2023-04-25T11:24:35;96784.40;;;17.50
68027;BMP180;54819;48.030;14.710;2023-04-25T11:27:04;96792.60;;;17.40
68027;BMP180;54819;48.030;14.710;2023-04-25T11:29:34;96797.80;;;17.40
68027;BMP180;54819;48.030;14.710;2023-04-25T11:32:01;96795.60;;;17.50
68027;BMP180;54819;48.030;14.710;2023-04-25T11:34:30;96801.40;;;17.70
68027;BMP180;54819;48.030;14.710;2023-04-25T11:37:02;96799.00;;;17.90
68027;BMP180;54819;48.030;14.710;2023-04-25T11:39:30;96801.80;;;18.24
68027;BMP180;54819;48.030;14.710;2023-04-25T11:41:56;96803.80;;;18.44
68027;BMP180;54819;48.030;14.710;2023-04-25T11:44:24;96803.60;;;18.68
68027;BMP180;54819;48.030;14.710;2023-04-25T11:46:50;96807.60;;;18.90
68027;BMP180;54819;48.030;14.710;2023-04-25T11:49:17;96811.40;;;19.00
68027;BMP180;54819;48.030;14.710;2023-04-25T11:51:47;96818.80;;;19.00
68027;BMP180;54819;48.030;14.710;2023-04-25T11:54:15;96820.00;;;19.00
68027;BMP180;54819;48.030;14.710;2023-04-25T11:56:44;96822.40;;;18.90
68027;BMP180;54819;48.030;14.710;2023-04-25T11:59:13;96823.60;;;18.80
68027;BMP180;54819;48.030;14.710;2023-04-25T12:01:48;96824.20;;;18.50
68027;BMP180;54819;48.030;14.710;2023-04-25T12:04:20;96831.40;;;18.30
68027;BMP180;54819;48.030;14.710;2023-04-25T12:06:53;96846.60;;;18.08
68027;BMP180;54819;48.030;14.710;2023-04-25T12:09:32;96860.60;;;17.58
68027;BMP180;54819;48.030;14.710;2023-04-25T12:12:01;96868.20;;;17.00
68027;BMP180;54819;48.030;14.710;2023-04-25T12:14:34;96866.40;;;16.70
68027;BMP180;54819;48.030;14.710;2023-04-25T12:17:04;96871.80;;;16.30
68027;BMP180;54819;48.030;14.710;2023-04-25T12:19:37;96870.00;;;16.00
68027;BMP180;54819;48.030;14.710;2023-04-25T12:22:24;96874.80;;;15.60
68027;BMP180;54819;48.030;14.710;2023-04-25T12:24:51;96865.40;;;15.30
68027;BMP180;54819;48.030;14.710;2023-04-25T12:27:20;96848.00;;;15.20
68027;BMP180;54819;48.030;14.710;2023-04-25T12:29:55;96848.00;;;15.20
68027;BMP180;54819;48.030;14.710;2023-04-25T12:32:23;96849.40;;;15.34
68027;BMP180;54819;48.030;14.710;2023-04-25T12:34:50;96843.40;;;15.50
68027;BMP180;54819;48.030;14.710;2023-04-25T12:37:16;96839.80;;;15.60
68027;BMP180;54819;48.030;14.710;2023-04-25T12:39:43;96836.40;;;15.70
68027;BMP180;54819;48.030;14.710;2023-04-25T12:42:10;96833.80;;;15.90
68027;BMP180;54819;48.030;14.710;2023-04-25T12:44:40;96825.20;;;16.12
68027;BMP180;54819;48.030;14.710;2023-04-25T12:47:07;96825.80;;;16.40
68027;BMP180;54819;48.030;14.710;2023-04-25T12:49:34;96828.20;;;16.80
68027;BMP180;54819;48.030;14.710;2023-04-25T12:52:01;96828.80;;;16.90
68027;BMP180;54819;48.030;14.710;2023-04-25T12:54:28;96823.40;;;17.00
68027;BMP180;54819;48.030;14.710;2023-04-25T12:56:55;96825.60;;;17.10
68027;BMP180;54819;48.030;14.710;2023-04-25T12:59:22;96827.00;;;17.10
68027;BMP180;54819;48.030;14.710;2023-04-25T13:01:49;96823.60;;;17.08
68027;BMP180;54819;48.030;14.710;2023-04-25T13:04:16;96822.40;;;16.98
68027;BMP180;54819;48.030;14.710;2023-04-25T13:06:43;96820.00;;;16.82
68027;BMP180;54819;48.030;14.710;2023-04-25T13:09:10;96824.20;;;16.70
68027;BMP180;54819;48.030;14.710;2023-04-25T13:11:39;96824.20;;;16.60
68027;BMP180;54819;48.030;14.710;2023-04-25T13:14:06;96818.80;;;16.56
68027;BMP180;54819;48.030;14.710;2023-04-25T13:16:34;96815.00;;;16.50
68027;BMP180;54819;48.030;14.710;2023-04-25T13:19:01;96817.60;;;16.32
68027;BMP180;54819;48.030;14.710;2023-04-25T13:21:30;96812.60;;;16.30
68027;BMP180;54819;48.030;14.710;2023-04-25T13:23:58;96804.80;;;16.20
68027;BMP180;54819;48.030;14.710;2023-04-25T13:26:26;96802.60;;;16.10
68027;BMP180;54819;48.030;14.710;2023-04-25T13:28:52;96794.80;;;16.10
68027;BMP180;54819;48.030;14.710;2023-04-25T13:31:19;96801.40;;;16.10
68027;BMP180;54819;48.030;14.710;2023-04-25T13:33:46;96793.20;;;16.00
68027;BMP180;54819;48.030;14.710;2023-04-25T13:36:13;96792.20;;;16.00
68027;BMP180;54819;48.030;14.710;2023-04-25T13:38:39;96797.80;;;16.10
68027;BMP180;54819;48.030;14.710;2023-04-25T13:41:10;96800.00;;;16.24
68027;BMP180;54819;48.030;14.710;2023-04-25T13:43:40;96796.40;;;16.38
68027;BMP180;54819;48.030;14.710;2023-04-25T13:46:06;96803.60;;;16.60
68027;BMP180;54819;48.030;14.710;2023-04-25T13:48:34;96809.20;;;16.52
68027;BMP180;54819;48.030;14.710;2023-04-25T13:51:01;96813.00;;;16.42
68027;BMP180;54819;48.030;14.710;2023-04-25T13:53:28;96820.20;;;16.20
68027;BMP180;54819;48.030;14.710;2023-04-25T13:55:55;96837.80;;;15.90
68027;BMP180;54819;48.030;14.710;2023-04-25T13:58:21;96851.60;;;15.50
68027;BMP180;54819;48.030;14.710;2023-04-25T14:00:48;96868.20;;;15.08
68027;BMP180;54819;48.030;14.710;2023-04-25T14:03:15;96875.00;;;14.78
68027;BMP180;54819;48.030;14.710;2023-04-25T14:05:42;96896.20;;;14.50
68027;BMP180;54819;48.030;14.710;2023-04-25T14:08:09;96887.60;;;14.20
68027;BMP180;54819;48.030;14.710;2023-04-25T14:10:37;96877.80;;;14.10
68027;BMP180;54819;48.030;14.710;2023-04-25T14:13:04;96882.00;;;14.10
68027;BMP180;54819;48.030;14.710;2023-04-25T14:15:34;96881.00;;;14.10
68027;BMP180;54819;48.030;14.710;2023-04-25T14:18:01;96886.40;;;14.10
68027;BMP180;54819;48.030;14.710;2023-04-25T14:20:29;96888.80;;;14.08
68027;BMP180;54819;48.030;14.710;2023-04-25T14:22:56;96891.60;;;14.02
68027;BMP180;54819;48.030;14.710;2023-04-25T14:25:25;96897.80;;;14.00
68027;BMP180;54819;48.030;14.710;2023-04-25T14:27:52;96899.00;;;13.90
68027;BMP180;54819;48.030;14.710;2023-04-25T14:30:21;96900.60;;;13.86